sensor_id;sensor_type;location;lat;lon;timestamp;P1;durP1;ratioP1;P2;durP2;ratioP2
69485;SDS011;56677;51.710;5.366;2024-01-06T07:13:03;2.35;;;1.90;;
69485;SDS011;56677;51.710;5.366;2024-01-06T07:15:28;2.23;;;1.20;;
69485;SDS011;56677;51.710;5.366;2024-01-06T07:17:53;1.90;;;1.25;;
69485;SDS011;56677;51.710;5.366;2024-01-06T07:20:19;2.15;;;1.20;;
69485;SDS011;56677;51.710;5.366;2024-01-06T07:22:44;2.27;;;1.70;;
69485;SDS011;56677;51.710;5.366;2024-01-06T07:25:09;2.30;;;1.42;;
69485;SDS011;56677;51.710;5.366;2024-01-06T07:27:34;2.60;;;1.53;;
69485;SDS011;56677;51.710;5.366;2024-01-06T07:29:59;3.07;;;1.30;;
69485;SDS011;56677;51.710;5.366;2024-01-06T07:32:24;2.20;;;1.33;;
69485;SDS011;56677;51.710;5.366;2024-01-06T07:34:50;2.83;;;1.33;;
69485;SDS011;56677;51.710;5.366;2024-01-06T07:37:15;1.80;;;1.27;;
69485;SDS011;56677;51.710;5.366;2024-01-06T07:39:40;1.98;;;1.17;;
69485;SDS011;56677;51.710;5.366;2024-01-06T07:42:05;2.33;;;1.38;;
69485;SDS011;56677;51.710;5.366;2024-01-06T07:44:30;3.15;;;1.40;;
69485;SDS011;56677;51.710;5.366;2024-01-06T07:46:55;2.38;;;1.38;;
69485;SDS011;56677;51.710;5.366;2024-01-06T07:49:20;4.05;;;1.40;;
69485;SDS011;56677;51.710;5.366;2024-01-06T07:51:45;2.20;;;1.33;;
69485;SDS011;56677;51.710;5.366;2024-01-06T07:54:11;2.10;;;1.23;;
69485;SDS011;56677;51.710;5.366;2024-01-06T07:56:36;3.35;;;1.20;;
69485;SDS011;56677;51.710;5.366;2024-01-06T07:59:01;1.70;;;0.98;;
69485;SDS011;56677;51.710;5.366;2024-01-06T08:01:26;2.72;;;1.52;;
69485;SDS011;56677;51.710;5.366;2024-01-06T08:03:51;3.23;;;1.13;;
69485;SDS011;56677;51.710;5.366;2024-01-06T08:06:16;2.30;;;1.00;;
69485;SDS011;56677;51.710;5.366;2024-01-06T08:08:42;1.93;;;1.23;;
69485;SDS011;56677;51.710;5.366;2024-01-06T08:11:07;4.25;;;1.30;;
69485;SDS011;56677;51.710;5.366;2024-01-06T08:13:32;1.77;;;1.25;;
69485;SDS011;56677;51.710;5.366;2024-01-06T08:15:57;2.35;;;1.55;;
69485;SDS011;56677;51.710;5.366;2024-01-06T08:18:22;4.17;;;1.30;;
69485;SDS011;56677;51.710;5.366;2024-01-06T08:20:47;4.97;;;1.20;;
69485;SDS011;56677;51.710;5.366;2024-01-06T08:23:12;3.92;;;1.45;;
69485;SDS011;56677;51.710;5.366;2024-01-06T08:25:37;2.13;;;1.30;;
69485;SDS011;56677;51.710;5.366;2024-01-06T08:28:03;4.90;;;1.75;;
69485;SDS011;56677;51.710;5.366;2024-01-06T08:30:28;2.30;;;1.50;;
69485;SDS011;56677;51.710;5.366;2024-01-06T08:32:53;3.53;;;1.23;;
69485;SDS011;56677;51.710;5.366;2024-01-06T08:35:18;4.10;;;1.58;;
69485;SDS011;56677;51.710;5.366;2024-01-06T08:37:43;5.33;;;1.50;;
69485;SDS011;56677;51.710;5.366;2024-01-06T08:40:09;2.70;;;1.30;;
69485;SDS011;56677;51.710;5.366;2024-01-06T08:42:34;3.93;;;1.90;;
69485;SDS011;56677;51.710;5.366;2024-01-06T08:44:59;7.18;;;1.70;;
69485;SDS011;56677;51.710;5.366;2024-01-06T08:47:24;4.70;;;1.67;;
69485;SDS011;56677;51.710;5.366;2024-01-06T08:49:49;4.50;;;1.80;;
69485;SDS011;56677;51.710;5.366;2024-01-06T08:52:14;8.55;;;2.10;;
69485;SDS011;56677;51.710;5.366;2024-01-06T08:54:39;4.45;;;2.00;;
69485;SDS011;56677;51.710;5.366;2024-01-06T08:57:04;7.78;;;2.28;;
69485;SDS011;56677;51.710;5.366;2024-01-06T08:59:29;11.73;;;2.75;;
69485;SDS011;56677;51.710;5.366;2024-01-06T09:01:55;4.97;;;2.00;;
69485;SDS011;56677;51.710;5.366;2024-01-06T09:04:20;8.85;;;2.15;;
69485;SDS011;56677;51.710;5.366;2024-01-06T09:06:45;10.13;;;2.00;;
69485;SDS011;56677;51.710;5.366;2024-01-06T09:09:10;9.57;;;2.20;;
69485;SDS011;56677;51.710;5.366;2024-01-06T09:11:35;7.93;;;1.93;;
69485;SDS011;56677;51.710;5.366;2024-01-06T09:14:00;10.55;;;1.83;;
69485;SDS011;56677;51.710;5.366;2024-01-06T09:16:25;7.17;;;2.10;;
69485;SDS011;56677;51.710;5.366;2024-01-06T09:18:50;5.43;;;1.83;;
69485;SDS011;56677;51.710;5.366;2024-01-06T09:21:16;8.25;;;2.20;;
69485;SDS011;56677;51.710;5.366;2024-01-06T09:23:41;8.25;;;2.22;;
69485;SDS011;56677;51.710;5.366;2024-01-06T09:26:06;7.03;;;1.90;;
69485;SDS011;56677;51.710;5.366;2024-01-06T09:28:31;5.40;;;2.00;;
69485;SDS011;56677;51.710;5.366;2024-01-06T09:30:56;7.85;;;1.73;;
69485;SDS011;56677;51.710;5.366;2024-01-06T09:33:22;8.70;;;1.87;;
69485;SDS011;56677;51.710;5.366;2024-01-06T09:35:47;6.03;;;1.90;;
69485;SDS011;56677;51.710;5.366;2024-01-06T09:38:12;5.03;;;1.70;;
69485;SDS011;56677;51.710;5.366;2024-01-06T09:40:41;8.18;;;2.20;;
69485;SDS011;56677;51.710;5.366;2024-01-06T09:43:06;6.65;;;1.77;;
69485;SDS011;56677;51.710;5.366;2024-01-06T09:45:31;7.05;;;1.90;;
69485;SDS011;56677;51.710;5.366;2024-01-06T09:47:56;8.43;;;2.30;;
69485;SDS011;56677;51.710;5.366;2024-01-06T09:50:22;7.78;;;2.10;;
69485;SDS011;56677;51.710;5.366;2024-01-06T09:52:48;5.28;;;1.85;;
69485;SDS011;56677;51.710;5.366;2024-01-06T09:55:13;7.53;;;2.13;;
69485;SDS011;56677;51.710;5.366;2024-01-06T09:57:38;5.97;;;1.90;;
69485;SDS011;56677;51.710;5.366;2024-01-06T10:00:04;8.40;;;2.10;;
69485;SDS011;56677;51.710;5.366;2024-01-06T10:02:29;4.17;;;2.07;;
69485;SDS011;56677;51.710;5.366;2024-01-06T10:04:54;3.87;;;1.90;;
69485;SDS011;56677;51.710;5.366;2024-01-06T10:07:19;5.00;;;1.38;;
69485;SDS011;56677;51.710;5.366;2024-01-06T10:09:44;5.40;;;2.25;;
69485;SDS011;56677;51.710;5.366;2024-01-06T10:12:09;4.20;;;1.65;;
69485;SDS011;56677;51.710;5.366;2024-01-06T10:14:35;4.82;;;2.10;;
69485;SDS011;56677;51.710;5.366;2024-01-06T10:17:00;6.43;;;2.13;;
69485;SDS011;56677;51.710;5.366;2024-01-06T10:19:25;5.78;;;2.00;;
69485;SDS011;56677;51.710;5.366;2024-01-06T10:21:50;4.40;;;1.77;;
69485;SDS011;56677;51.710;5.366;2024-01-06T10:24:18;8.70;;;1.90;;
69485;SDS011;56677;51.710;5.366;2024-01-06T10:26:46;3.55;;;1.92;;
69485;SDS011;56677;51.710;5.366;2024-01-06T10:29:13;3.70;;;1.50;;
69485;SDS011;56677;51.710;5.366;2024-01-06T10:31:38;4.47;;;2.35;;
69485;SDS011;56677;51.710;5.366;2024-01-06T10:34:03;3.73;;;1.80;;
69485;SDS011;56677;51.710;5.366;2024-01-06T10:36:29;4.75;;;1.98;;
69485;SDS011;56677;51.710;5.366;2024-01-06T10:38:54;6.43;;;2.13;;
69485;SDS011;56677;51.710;5.366;2024-01-06T10:41:19;3.78;;;1.65;;
69485;SDS011;56677;51.710;5.366;2024-01-06T10:43:45;6.33;;;2.10;;
69485;SDS011;56677;51.710;5.366;2024-01-06T10:46:11;6.38;;;2.10;;
69485;SDS011;56677;51.710;5.366;2024-01-06T10:48:37;4.53;;;2.03;;
69485;SDS011;56677;51.710;5.366;2024-01-06T10:51:02;3.67;;;1.90;;
69485;SDS011;56677;51.710;5.366;2024-01-06T10:53:27;3.35;;;1.67;;
69485;SDS011;56677;51.710;5.366;2024-01-06T10:55:53;3.90;;;1.90;;
69485;SDS011;56677;51.710;5.366;2024-01-06T10:58:18;4.87;;;2.10;;
69485;SDS011;56677;51.710;5.366;2024-01-06T11:00:43;4.43;;;1.73;;
69485;SDS011;56677;51.710;5.366;2024-01-06T11:03:09;4.03;;;2.20;;
69485;SDS011;56677;51.710;5.366;2024-01-06T11:05:34;3.93;;;1.70;;
69485;SDS011;56677;51.710;5.366;2024-01-06T11:08:00;4.60;;;1.73;;
69485;SDS011;56677;51.710;5.366;2024-01-06T11:10:25;3.53;;;1.60;;
69485;SDS011;56677;51.710;5.366;2024-01-06T11:15:42;5.63;;;1.80;;
69485;SDS011;56677;51.710;5.366;2024-01-06T11:18:07;4.80;;;2.05;;
69485;SDS011;56677;51.710;5.366;2024-01-06T11:20:33;4.68;;;2.10;;
69485;SDS011;56677;51.710;5.366;2024-01-06T11:23:17;2.80;;;1.87;;
69485;SDS011;56677;51.710;5.366;2024-01-06T11:25:42;5.00;;;1.83;;
69485;SDS011;56677;51.710;5.366;2024-01-06T11:28:08;4.22;;;1.75;;
69485;SDS011;56677;51.710;5.366;2024-01-06T11:30:33;3.83;;;1.77;;
69485;SDS011;56677;51.710;5.366;2024-01-06T11:32:58;3.28;;;1.90;;
69485;SDS011;56677;51.710;5.366;2024-01-06T11:35:23;3.50;;;1.73;;
69485;SDS011;56677;51.710;5.366;2024-01-06T11:37:51;2.40;;;1.60;;
69485;SDS011;56677;51.710;5.366;2024-01-06T11:42:48;6.23;;;1.80;;
69485;SDS011;56677;51.710;5.366;2024-01-06T11:45:13;2.90;;;1.40;;
69485;SDS011;56677;51.710;5.366;2024-01-06T11:47:39;3.40;;;1.70;;
69485;SDS011;56677;51.710;5.366;2024-01-06T11:50:04;4.13;;;1.80;;
69485;SDS011;56677;51.710;5.366;2024-01-06T11:52:33;4.33;;;1.60;;
69485;SDS011;56677;51.710;5.366;2024-01-06T11:54:58;3.83;;;1.58;;
69485;SDS011;56677;51.710;5.366;2024-01-06T11:57:23;4.78;;;2.05;;
69485;SDS011;56677;51.710;5.366;2024-01-06T11:59:50;3.67;;;1.30;;
69485;SDS011;56677;51.710;5.366;2024-01-06T12:02:17;2.72;;;1.15;;
69485;SDS011;56677;51.710;5.366;2024-01-06T12:04:42;3.23;;;1.23;;
69485;SDS011;56677;51.710;5.366;2024-01-06T12:07:08;3.88;;;1.63;;
69485;SDS011;56677;51.710;5.366;2024-01-06T12:09:33;5.00;;;1.80;;
69485;SDS011;56677;51.710;5.366;2024-01-06T12:12:02;5.05;;;1.67;;
69485;SDS011;56677;51.710;5.366;2024-01-06T12:14:27;2.63;;;1.70;;
69485;SDS011;56677;51.710;5.366;2024-01-06T12:16:52;3.60;;;1.88;;
69485;SDS011;56677;51.710;5.366;2024-01-06T12:19:17;2.90;;;1.70;;
69485;SDS011;56677;51.710;5.366;2024-01-06T12:21:42;4.23;;;1.50;;
69485;SDS011;56677;51.710;5.366;2024-01-06T12:24:17;4.60;;;1.92;;
69485;SDS011;56677;51.710;5.366;2024-01-06T12:26:44;3.30;;;1.65;;
69485;SDS011;56677;51.710;5.366;2024-01-06T12:29:09;4.85;;;1.92;;
69485;SDS011;56677;51.710;5.366;2024-01-06T12:31:35;4.13;;;2.30;;
69485;SDS011;56677;51.710;5.366;2024-01-06T12:34:00;5.35;;;2.35;;
69485;SDS011;56677;51.710;5.366;2024-01-06T12:36:25;4.30;;;2.17;;
69485;SDS011;56677;51.710;5.366;2024-01-06T12:38:50;4.47;;;2.40;;
69485;SDS011;56677;51.710;5.366;2024-01-06T12:41:15;3.03;;;1.77;;
69485;SDS011;56677;51.710;5.366;2024-01-06T12:43:41;4.50;;;2.20;;
69485;SDS011;56677;51.710;5.366;2024-01-06T12:46:06;5.30;;;2.25;;
69485;SDS011;56677;51.710;5.366;2024-01-06T12:48:31;4.63;;;2.05;;
69485;SDS011;56677;51.710;5.366;2024-01-06T12:50:56;4.88;;;1.98;;
69485;SDS011;56677;51.710;5.366;2024-01-06T12:53:21;3.45;;;1.70;;
69485;SDS011;56677;51.710;5.366;2024-01-06T12:55:46;4.07;;;1.90;;
69485;SDS011;56677;51.710;5.366;2024-01-06T12:58:11;4.18;;;1.90;;
69485;SDS011;56677;51.710;5.366;2024-01-06T13:00:36;4.60;;;2.00;;
69485;SDS011;56677;51.710;5.366;2024-01-06T13:03:02;5.20;;;2.33;;
69485;SDS011;56677;51.710;5.366;2024-01-06T13:05:27;4.93;;;2.00;;
69485;SDS011;56677;51.710;5.366;2024-01-06T13:07:52;5.20;;;1.83;;
69485;SDS011;56677;51.710;5.366;2024-01-06T13:10:17;4.10;;;2.00;;
69485;SDS011;56677;51.710;5.366;2024-01-06T13:12:42;6.47;;;2.00;;
69485;SDS011;56677;51.710;5.366;2024-01-06T13:15:07;4.35;;;2.15;;
69485;SDS011;56677;51.710;5.366;2024-01-06T13:17:33;3.47;;;1.73;;
69485;SDS011;56677;51.710;5.366;2024-01-06T13:19:58;3.40;;;1.80;;
69485;SDS011;56677;51.710;5.366;2024-01-06T13:22:23;3.13;;;1.67;;
69485;SDS011;56677;51.710;5.366;2024-01-06T13:24:48;3.97;;;1.63;;
69485;SDS011;56677;51.710;5.366;2024-01-06T13:27:13;5.18;;;1.90;;
69485;SDS011;56677;51.710;5.366;2024-01-06T13:29:38;3.45;;;2.13;;
69485;SDS011;56677;51.710;5.366;2024-01-06T13:32:04;2.95;;;1.90;;
69485;SDS011;56677;51.710;5.366;2024-01-06T13:34:29;3.47;;;1.83;;
69485;SDS011;56677;51.710;5.366;2024-01-06T13:36:54;2.60;;;1.60;;
69485;SDS011;56677;51.710;5.366;2024-01-06T13:39:19;4.65;;;2.10;;
69485;SDS011;56677;51.710;5.366;2024-01-06T13:41:44;5.30;;;1.75;;
69485;SDS011;56677;51.710;5.366;2024-01-06T13:44:09;4.95;;;1.73;;
69485;SDS011;56677;51.710;5.366;2024-01-06T13:46:34;4.15;;;2.05;;
69485;SDS011;56677;51.710;5.366;2024-01-06T13:49:00;4.73;;;1.60;;
69485;SDS011;56677;51.710;5.366;2024-01-06T13:51:25;4.18;;;1.95;;
69485;SDS011;56677;51.710;5.366;2024-01-06T13:53:50;2.50;;;1.92;;
69485;SDS011;56677;51.710;5.366;2024-01-06T13:56:15;4.40;;;2.10;;
69485;SDS011;56677;51.710;5.366;2024-01-06T13:58:40;3.78;;;1.95;;
69485;SDS011;56677;51.710;5.366;2024-01-06T14:01:05;4.53;;;1.90;;
69485;SDS011;56677;51.710;5.366;2024-01-06T14:03:30;3.27;;;1.93;;
69485;SDS011;56677;51.710;5.366;2024-01-06T14:05:56;3.25;;;1.77;;
69485;SDS011;56677;51.710;5.366;2024-01-06T14:08:21;4.25;;;2.00;;
69485;SDS011;56677;51.710;5.366;2024-01-06T14:10:46;4.35;;;1.67;;
69485;SDS011;56677;51.710;5.366;2024-01-06T14:13:11;4.45;;;2.25;;
69485;SDS011;56677;51.710;5.366;2024-01-06T14:15:36;2.88;;;1.60;;
69485;SDS011;56677;51.710;5.366;2024-01-06T14:18:02;5.72;;;1.90;;
69485;SDS011;56677;51.710;5.366;2024-01-06T14:20:27;6.60;;;1.63;;
69485;SDS011;56677;51.710;5.366;2024-01-06T14:22:52;4.22;;;1.75;;
69485;SDS011;56677;51.710;5.366;2024-01-06T14:25:17;3.70;;;1.90;;
69485;SDS011;56677;51.710;5.366;2024-01-06T14:27:43;4.80;;;1.90;;
69485;SDS011;56677;51.710;5.366;2024-01-06T14:30:08;3.75;;;1.70;;
69485;SDS011;56677;51.710;5.366;2024-01-06T14:32:33;4.87;;;1.67;;
69485;SDS011;56677;51.710;5.366;2024-01-06T14:34:58;4.20;;;2.00;;
69485;SDS011;56677;51.710;5.366;2024-01-06T14:37:24;3.65;;;1.75;;
69485;SDS011;56677;51.710;5.366;2024-01-06T14:39:49;4.53;;;2.03;;
69485;SDS011;56677;51.710;5.366;2024-01-06T14:42:14;3.20;;;1.65;;
69485;SDS011;56677;51.710;5.366;2024-01-06T14:44:39;4.75;;;1.80;;
69485;SDS011;56677;51.710;5.366;2024-01-06T14:47:04;6.05;;;1.75;;
69485;SDS011;56677;51.710;5.366;2024-01-06T14:49:29;4.73;;;2.00;;
69485;SDS011;56677;51.710;5.366;2024-01-06T14:51:55;4.57;;;1.83;;
69485;SDS011;56677;51.710;5.366;2024-01-06T14:54:20;3.60;;;2.03;;
69485;SDS011;56677;51.710;5.366;2024-01-06T14:56:45;3.22;;;1.95;;
69485;SDS011;56677;51.710;5.366;2024-01-06T14:59:10;4.53;;;1.98;;
69485;SDS011;56677;51.710;5.366;2024-01-06T15:01:35;4.40;;;1.58;;
69485;SDS011;56677;51.710;5.366;2024-01-06T15:04:00;6.88;;;2.10;;
69485;SDS011;56677;51.710;5.366;2024-01-06T15:06:25;3.28;;;2.00;;
69485;SDS011;56677;51.710;5.366;2024-01-06T15:08:50;3.63;;;1.90;;
69485;SDS011;56677;51.710;5.366;2024-01-06T15:11:15;3.70;;;1.92;;
69485;SDS011;56677;51.710;5.366;2024-01-06T15:13:41;4.85;;;1.70;;
69485;SDS011;56677;51.710;5.366;2024-01-06T15:16:06;4.57;;;2.10;;
69485;SDS011;56677;51.710;5.366;2024-01-06T15:18:31;6.65;;;2.22;;
69485;SDS011;56677;51.710;5.366;2024-01-06T15:20:56;3.75;;;2.20;;
69485;SDS011;56677;51.710;5.366;2024-01-06T15:23:21;3.25;;;1.80;;
69485;SDS011;56677;51.710;5.366;2024-01-06T15:25:46;3.85;;;2.05;;
69485;SDS011;56677;51.710;5.366;2024-01-06T15:28:11;3.85;;;1.85;;
69485;SDS011;56677;51.710;5.366;2024-01-06T15:30:36;4.30;;;2.50;;
69485;SDS011;56677;51.710;5.366;2024-01-06T15:33:02;5.00;;;2.20;;
69485;SDS011;56677;51.710;5.366;2024-01-06T15:35:27;5.90;;;2.03;;
69485;SDS011;56677;51.710;5.366;2024-01-06T15:37:52;3.72;;;1.88;;
69485;SDS011;56677;51.710;5.366;2024-01-06T15:40:17;4.30;;;2.00;;
69485;SDS011;56677;51.710;5.366;2024-01-06T15:42:42;3.97;;;1.70;;
69485;SDS011;56677;51.710;5.366;2024-01-06T15:45:07;4.38;;;2.10;;
69485;SDS011;56677;51.710;5.366;2024-01-06T15:47:33;4.97;;;1.83;;
69485;SDS011;56677;51.710;5.366;2024-01-06T15:49:58;3.72;;;1.88;;
69485;SDS011;56677;51.710;5.366;2024-01-06T15:52:23;6.93;;;2.13;;
69485;SDS011;56677;51.710;5.366;2024-01-06T15:54:48;6.72;;;2.33;;
69485;SDS011;56677;51.710;5.366;2024-01-06T15:57:13;8.60;;;2.23;;
69485;SDS011;56677;51.710;5.366;2024-01-06T15:59:39;4.75;;;1.90;;
69485;SDS011;56677;51.710;5.366;2024-01-06T16:02:04;3.40;;;1.93;;
69485;SDS011;56677;51.710;5.366;2024-01-06T16:04:29;4.28;;;2.10;;
69485;SDS011;56677;51.710;5.366;2024-01-06T16:06:54;5.18;;;1.90;;
69485;SDS011;56677;51.710;5.366;2024-01-06T16:09:19;6.30;;;2.10;;
69485;SDS011;56677;51.710;5.366;2024-01-06T16:11:45;4.15;;;2.10;;
69485;SDS011;56677;51.710;5.366;2024-01-06T16:14:10;4.50;;;1.90;;
69485;SDS011;56677;51.710;5.366;2024-01-06T16:16:35;4.50;;;1.92;;
69485;SDS011;56677;51.710;5.366;2024-01-06T16:19:00;5.78;;;2.05;;
69485;SDS011;56677;51.710;5.366;2024-01-06T16:21:25;5.90;;;2.10;;
69485;SDS011;56677;51.710;5.366;2024-01-06T16:23:51;5.13;;;2.00;;
69485;SDS011;56677;51.710;5.366;2024-01-06T16:26:16;5.28;;;2.03;;
69485;SDS011;56677;51.710;5.366;2024-01-06T16:28:41;7.00;;;1.90;;
69485;SDS011;56677;51.710;5.366;2024-01-06T16:31:06;4.50;;;1.85;;
69485;SDS011;56677;51.710;5.366;2024-01-06T16:33:34;3.30;;;2.00;;
69485;SDS011;56677;51.710;5.366;2024-01-06T16:35:59;4.90;;;2.27;;
69485;SDS011;56677;51.710;5.366;2024-01-06T16:38:24;5.97;;;2.20;;
69485;SDS011;56677;51.710;5.366;2024-01-06T16:40:49;4.40;;;1.80;;
69485;SDS011;56677;51.710;5.366;2024-01-06T16:43:14;4.13;;;2.50;;
69485;SDS011;56677;51.710;5.366;2024-01-06T16:45:39;5.55;;;2.67;;
69485;SDS011;56677;51.710;5.366;2024-01-06T16:48:05;4.60;;;2.10;;
69485;SDS011;56677;51.710;5.366;2024-01-06T16:50:30;4.57;;;2.30;;
69485;SDS011;56677;51.710;5.366;2024-01-06T16:52:55;5.30;;;2.03;;
69485;SDS011;56677;51.710;5.366;2024-01-06T16:55:20;4.57;;;2.30;;
69485;SDS011;56677;51.710;5.366;2024-01-06T16:57:45;6.13;;;2.40;;
69485;SDS011;56677;51.710;5.366;2024-01-06T17:00:10;3.85;;;2.15;;
69485;SDS011;56677;51.710;5.366;2024-01-06T17:02:35;3.30;;;1.97;;
69485;SDS011;56677;51.710;5.366;2024-01-06T17:05:01;7.75;;;2.60;;
69485;SDS011;56677;51.710;5.366;2024-01-06T17:07:26;3.60;;;1.43;;
69485;SDS011;56677;51.710;5.366;2024-01-06T17:09:51;4.83;;;2.00;;
69485;SDS011;56677;51.710;5.366;2024-01-06T17:12:16;5.57;;;2.15;;
69485;SDS011;56677;51.710;5.366;2024-01-06T17:14:41;3.67;;;1.77;;
69485;SDS011;56677;51.710;5.366;2024-01-06T17:17:06;3.50;;;1.98;;
69485;SDS011;56677;51.710;5.366;2024-01-06T17:19:32;4.43;;;2.28;;
69485;SDS011;56677;51.710;5.366;2024-01-06T17:21:57;5.60;;;2.43;;
69485;SDS011;56677;51.710;5.366;2024-01-06T17:24:22;5.23;;;2.00;;
69485;SDS011;56677;51.710;5.366;2024-01-06T17:26:47;5.40;;;1.93;;
69485;SDS011;56677;51.710;5.366;2024-01-06T17:29:12;5.28;;;2.20;;
69485;SDS011;56677;51.710;5.366;2024-01-06T17:31:37;5.45;;;1.80;;
69485;SDS011;56677;51.710;5.366;2024-01-06T17:34:03;4.60;;;2.10;;
69485;SDS011;56677;51.710;5.366;2024-01-06T17:36:28;4.28;;;1.90;;
69485;SDS011;56677;51.710;5.366;2024-01-06T17:38:54;7.22;;;2.10;;
69485;SDS011;56677;51.710;5.366;2024-01-06T17:41:19;4.28;;;2.17;;
69485;SDS011;56677;51.710;5.366;2024-01-06T17:43:44;4.97;;;2.42;;
69485;SDS011;56677;51.710;5.366;2024-01-06T17:46:09;7.13;;;2.70;;
69485;SDS011;56677;51.710;5.366;2024-01-06T17:48:34;4.38;;;1.98;;
69485;SDS011;56677;51.710;5.366;2024-01-06T17:51:00;5.13;;;2.10;;
69485;SDS011;56677;51.710;5.366;2024-01-06T17:53:25;4.68;;;2.10;;
69485;SDS011;56677;51.710;5.366;2024-01-06T17:55:50;4.40;;;2.08;;
69485;SDS011;56677;51.710;5.366;2024-01-06T17:58:15;5.65;;;2.60;;
69485;SDS011;56677;51.710;5.366;2024-01-06T18:00:40;5.15;;;2.03;;
69485;SDS011;56677;51.710;5.366;2024-01-06T18:03:05;5.45;;;2.40;;
69485;SDS011;56677;51.710;5.366;2024-01-06T18:05:30;3.73;;;2.37;;
69485;SDS011;56677;51.710;5.366;2024-01-06T18:07:55;5.10;;;2.28;;
69485;SDS011;56677;51.710;5.366;2024-01-06T18:10:21;4.07;;;2.22;;
69485;SDS011;56677;51.710;5.366;2024-01-06T18:12:46;4.60;;;2.40;;
69485;SDS011;56677;51.710;5.366;2024-01-06T18:15:11;4.65;;;1.90;;
69485;SDS011;56677;51.710;5.366;2024-01-06T18:17:36;3.55;;;1.77;;
69485;SDS011;56677;51.710;5.366;2024-01-06T18:20:02;4.38;;;2.45;;
69485;SDS011;56677;51.710;5.366;2024-01-06T18:22:27;3.77;;;1.80;;
69485;SDS011;56677;51.710;5.366;2024-01-06T18:24:52;3.63;;;2.08;;
69485;SDS011;56677;51.710;5.366;2024-01-06T18:27:17;4.47;;;2.35;;
69485;SDS011;56677;51.710;5.366;2024-01-06T18:29:42;5.93;;;1.90;;
69485;SDS011;56677;51.710;5.366;2024-01-06T18:32:07;3.70;;;1.85;;
69485;SDS011;56677;51.710;5.366;2024-01-06T18:34:33;6.65;;;2.67;;
69485;SDS011;56677;51.710;5.366;2024-01-06T18:36:58;6.38;;;2.17;;
69485;SDS011;56677;51.710;5.366;2024-01-06T18:39:23;4.57;;;2.37;;
69485;SDS011;56677;51.710;5.366;2024-01-06T18:41:48;5.23;;;2.03;;
69485;SDS011;56677;51.710;5.366;2024-01-06T18:44:13;4.03;;;2.25;;
69485;SDS011;56677;51.710;5.366;2024-01-06T18:46:39;3.47;;;2.38;;
69485;SDS011;56677;51.710;5.366;2024-01-06T18:49:04;3.30;;;2.00;;
69485;SDS011;56677;51.710;5.366;2024-01-06T18:51:29;4.37;;;2.40;;
69485;SDS011;56677;51.710;5.366;2024-01-06T18:53:55;4.22;;;2.20;;
69485;SDS011;56677;51.710;5.366;2024-01-06T18:56:20;3.85;;;2.10;;
69485;SDS011;56677;51.710;5.366;2024-01-06T18:58:45;5.43;;;2.57;;
69485;SDS011;56677;51.710;5.366;2024-01-06T19:01:10;3.55;;;2.00;;
69485;SDS011;56677;51.710;5.366;2024-01-06T19:03:35;4.28;;;2.22;;
69485;SDS011;56677;51.710;5.366;2024-01-06T19:06:00;4.70;;;2.47;;
69485;SDS011;56677;51.710;5.366;2024-01-06T19:08:25;4.25;;;2.40;;
69485;SDS011;56677;51.710;5.366;2024-01-06T19:10:50;4.40;;;2.28;;
69485;SDS011;56677;51.710;5.366;2024-01-06T19:13:16;4.65;;;2.25;;
69485;SDS011;56677;51.710;5.366;2024-01-06T19:15:41;4.57;;;2.07;;
69485;SDS011;56677;51.710;5.366;2024-01-06T19:18:06;4.07;;;1.83;;
69485;SDS011;56677;51.710;5.366;2024-01-06T19:20:31;4.68;;;2.00;;
69485;SDS011;56677;51.710;5.366;2024-01-06T19:22:56;6.50;;;2.43;;
69485;SDS011;56677;51.710;5.366;2024-01-06T19:25:21;5.57;;;2.53;;
69485;SDS011;56677;51.710;5.366;2024-01-06T19:27:46;5.00;;;2.30;;
69485;SDS011;56677;51.710;5.366;2024-01-06T19:30:12;4.10;;;2.38;;
69485;SDS011;56677;51.710;5.366;2024-01-06T19:32:37;4.10;;;2.37;;
69485;SDS011;56677;51.710;5.366;2024-01-06T19:35:03;3.90;;;2.30;;
69485;SDS011;56677;51.710;5.366;2024-01-06T19:37:28;4.63;;;2.40;;
69485;SDS011;56677;51.710;5.366;2024-01-06T19:39:53;4.15;;;2.22;;
69485;SDS011;56677;51.710;5.366;2024-01-06T19:42:18;3.92;;;2.38;;
69485;SDS011;56677;51.710;5.366;2024-01-06T19:44:43;4.65;;;2.20;;
69485;SDS011;56677;51.710;5.366;2024-01-06T19:47:08;4.27;;;2.33;;
69485;SDS011;56677;51.710;5.366;2024-01-06T19:49:34;3.78;;;2.15;;
69485;SDS011;56677;51.710;5.366;2024-01-06T19:51:59;3.60;;;2.30;;
69485;SDS011;56677;51.710;5.366;2024-01-06T19:54:24;4.25;;;2.35;;
69485;SDS011;56677;51.710;5.366;2024-01-06T19:56:49;4.43;;;2.30;;
69485;SDS011;56677;51.710;5.366;2024-01-06T19:59:14;3.78;;;2.08;;
69485;SDS011;56677;51.710;5.366;2024-01-06T20:01:39;4.33;;;2.53;;
69485;SDS011;56677;51.710;5.366;2024-01-06T20:04:04;4.53;;;2.30;;
69485;SDS011;56677;51.710;5.366;2024-01-06T20:06:29;6.15;;;2.50;;
69485;SDS011;56677;51.710;5.366;2024-01-06T20:08:55;5.50;;;2.35;;
69485;SDS011;56677;51.710;5.366;2024-01-06T20:11:20;4.07;;;2.58;;
69485;SDS011;56677;51.710;5.366;2024-01-06T20:13:45;3.72;;;2.55;;
69485;SDS011;56677;51.710;5.366;2024-01-06T20:16:10;4.10;;;2.07;;
69485;SDS011;56677;51.710;5.366;2024-01-06T20:18:35;3.45;;;2.13;;
69485;SDS011;56677;51.710;5.366;2024-01-06T20:21:00;3.73;;;2.53;;
69485;SDS011;56677;51.710;5.366;2024-01-06T20:23:25;3.65;;;2.20;;
69485;SDS011;56677;51.710;5.366;2024-01-06T20:25:50;4.75;;;2.10;;
69485;SDS011;56677;51.710;5.366;2024-01-06T20:28:16;3.90;;;2.50;;
69485;SDS011;56677;51.710;5.366;2024-01-06T20:30:41;4.80;;;2.60;;
69485;SDS011;56677;51.710;5.366;2024-01-06T20:33:06;3.92;;;2.05;;
69485;SDS011;56677;51.710;5.366;2024-01-06T20:35:32;3.93;;;2.30;;
69485;SDS011;56677;51.710;5.366;2024-01-06T20:37:58;4.30;;;2.40;;
69485;SDS011;56677;51.710;5.366;2024-01-06T20:40:23;4.82;;;2.63;;
69485;SDS011;56677;51.710;5.366;2024-01-06T20:42:48;4.15;;;2.50;;
69485;SDS011;56677;51.710;5.366;2024-01-06T20:45:13;3.70;;;2.22;;
69485;SDS011;56677;51.710;5.366;2024-01-06T20:47:38;4.13;;;2.43;;
69485;SDS011;56677;51.710;5.366;2024-01-06T20:50:05;4.28;;;2.55;;
69485;SDS011;56677;51.710;5.366;2024-01-06T20:52:30;3.60;;;2.30;;
69485;SDS011;56677;51.710;5.366;2024-01-06T20:54:55;3.17;;;1.88;;
69485;SDS011;56677;51.710;5.366;2024-01-06T20:57:20;4.43;;;2.45;;
69485;SDS011;56677;51.710;5.366;2024-01-06T20:59:45;4.40;;;2.30;;
69485;SDS011;56677;51.710;5.366;2024-01-06T21:02:11;3.70;;;2.65;;
69485;SDS011;56677;51.710;5.366;2024-01-06T21:04:36;4.23;;;2.50;;
69485;SDS011;56677;51.710;5.366;2024-01-06T21:07:01;4.78;;;2.20;;
69485;SDS011;56677;51.710;5.366;2024-01-06T21:09:26;5.20;;;2.40;;
69485;SDS011;56677;51.710;5.366;2024-01-06T21:11:52;4.85;;;2.50;;
69485;SDS011;56677;51.710;5.366;2024-01-06T21:14:17;3.88;;;2.25;;
69485;SDS011;56677;51.710;5.366;2024-01-06T21:16:42;3.00;;;2.10;;
69485;SDS011;56677;51.710;5.366;2024-01-06T21:19:07;4.78;;;2.33;;
69485;SDS011;56677;51.710;5.366;2024-01-06T21:21:32;3.80;;;2.30;;
69485;SDS011;56677;51.710;5.366;2024-01-06T21:23:57;3.85;;;2.20;;
69485;SDS011;56677;51.710;5.366;2024-01-06T21:26:23;3.93;;;2.60;;
69485;SDS011;56677;51.710;5.366;2024-01-06T21:28:48;4.75;;;2.28;;
69485;SDS011;56677;51.710;5.366;2024-01-06T21:31:13;4.80;;;2.33;;
69485;SDS011;56677;51.710;5.366;2024-01-06T21:33:38;3.83;;;2.20;;
